Portada
METAR-TAF:

METAR-TAF

Aeroports :

Port Harcourt, Nigèria

latitud: 04-51N, longitud: 007-01E, altitud: 18 m

Observació

L'informe es va fer fa 2 hores i 1 minuts, a les 21:00 UTC
Vent calma
Temperatura 27°C
Humitat 89%
Pressió 1012 hPa
Visibilitat 10 km o més
Cel ennuvolat a una alçada de 800 ft

METAR: DNPO 192100Z 00000KT 9999 BKN008 27/25 Q1012 NOSIG

Hora: 00:01 (23:01 UTC)


TAF: manca

Observacions i pronòstics meteorològics de més de 4000 aeroports (METAR i TAF).

Les estacions disponibles són els punts grocs i vermells al mapa.

Posi el ratolí al punt desitjat per veure el nom de l'estació.

Feu clic per veure les observacions i els pronòstics meteorològics.

Per canviar el mapa: feu clic els botons verds amb una creu de color negre per apropar; al botó verd amb un guió per allunyar la imatge; o en les fletxes verdes per a mapes adjacents.


METAR-TAF: